Time;durP1;ratioP1;P1;durP2;ratioP2;P2;SDS_P1;SDS_P2;PMS_P1;PMS_P2;Temp;Humidity;BMP_temperature;BMP_pressure;BME280_temperature;BME280_humidity;BME280_pressure;Samples;Min_cycle;Max_cycle;Signal;HPM_P1;HPM_P2
2023/08/16 00:02:21;;;;;;;0.30;0.30;;;13.80;99.90;;;;;;5121546;27;20054;-76
2023/08/16 00:04:48;;;;;;;0.20;0.20;;;13.80;99.90;;;;;;5126886;27;20050;-76
2023/08/16 00:07:14;;;;;;;0.20;0.20;;;13.60;99.90;;;;;;5110253;27;20047;-76
2023/08/16 00:09:39;;;;;;;0.30;0.30;;;13.80;99.90;;;;;;5124995;27;20782;-76
2023/08/16 00:12:06;;;;;;;0.20;0.20;;;13.80;99.90;;;;;;5120118;27;20066;-76
2023/08/16 00:14:32;;;;;;;0.20;0.20;;;13.60;99.90;;;;;;5122504;27;20047;-76
2023/08/16 00:16:58;;;;;;;0.20;0.20;;;13.50;99.90;;;;;;5121841;27;20043;-75
2023/08/16 00:19:24;;;;;;;;;;;13.60;99.90;;;;;;5126102;27;20175;-75
2023/08/16 00:21:50;;;;;;;0.30;0.30;;;13.40;99.90;;;;;;5117176;27;19923;-76
2023/08/16 00:24:16;;;;;;;0.40;0.40;;;13.50;99.90;;;;;;5126319;27;20837;-76
2023/08/16 00:26:42;;;;;;;0.30;0.30;;;13.60;99.90;;;;;;5123448;27;20043;-76
2023/08/16 00:29:07;;;;;;;;;;;13.50;99.90;;;;;;5124396;27;20039;-77
2023/08/16 00:31:33;;;;;;;0.30;0.30;;;13.50;99.90;;;;;;5121822;27;20377;-76
2023/08/16 00:33:58;;;;;;;0.28;0.28;;;13.50;99.90;;;;;;5122733;27;20071;-76
2023/08/16 00:36:24;;;;;;;;;;;13.60;99.90;;;;;;5119223;27;20046;-76
2023/08/16 00:38:50;;;;;;;0.50;0.50;;;13.60;99.90;;;;;;5117109;27;19944;-75
2023/08/16 00:41:16;;;;;;;0.32;0.32;;;13.40;99.90;;;;;;5122473;27;20047;-75
2023/08/16 00:43:41;;;;;;;0.22;0.22;;;13.40;99.90;;;;;;5127934;27;20164;-76
2023/08/16 00:46:11;;;;;;;0.20;0.20;;;13.40;99.90;;;;;;5125229;27;20734;-77
2023/08/16 00:48:38;;;;;;;0.30;0.30;;;13.30;99.90;;;;;;5121708;27;20038;-76
2023/08/16 00:51:05;;;;;;;0.30;0.30;;;13.40;99.90;;;;;;5126107;27;20148;-75
2023/08/16 00:53:32;;;;;;;0.30;0.30;;;13.20;99.90;;;;;;5110221;27;20401;-76
2023/08/16 00:55:58;;;;;;;0.20;0.20;;;13.20;99.90;;;;;;5124950;27;20047;-75
2023/08/16 00:58:25;;;;;;;0.30;0.30;;;13.20;99.90;;;;;;5118684;27;20046;-75
2023/08/16 01:00:51;;;;;;;0.30;0.30;;;13.20;99.90;;;;;;5127815;27;20045;-76
2023/08/16 01:03:17;;;;;;;0.15;0.15;;;13.20;99.90;;;;;;5120654;27;20743;-76
2023/08/16 01:05:42;;;;;;;;;;;13.20;99.90;;;;;;5123482;27;20041;-76
2023/08/16 01:08:08;;;;;;;0.30;0.30;;;13.10;99.90;;;;;;5104591;28;19969;-75
2023/08/16 01:10:58;;;;;;;0.40;0.40;;;13.10;99.90;;;;;;5122298;28;20079;-75
2023/08/16 01:13:36;;;;;;;0.30;0.30;;;13.10;99.90;;;;;;5117692;28;20043;-76
2023/08/16 01:16:07;;;;;;;0.30;0.30;;;13.30;99.90;;;;;;5121003;28;20047;-76
2023/08/16 01:18:39;;;;;;;0.20;0.20;;;12.90;99.90;;;;;;5104289;28;20237;-76
2023/08/16 01:21:07;;;;;;;0.25;0.25;;;13.30;99.90;;;;;;5121407;27;20076;-75
2023/08/16 01:23:58;;;;;;;0.30;0.30;;;13.10;99.90;;;;;;5126267;27;20645;-76
2023/08/16 01:26:34;;;;;;;0.22;0.22;;;13.20;99.90;;;;;;5117714;27;20122;-76
2023/08/16 01:29:01;;;;;;;0.30;0.30;;;13.20;99.90;;;;;;5121862;27;20782;-75
2023/08/16 01:31:27;;;;;;;0.35;0.35;;;13.20;99.90;;;;;;5129433;27;20077;-75
2023/08/16 01:33:53;;;;;;;0.30;0.30;;;12.80;99.90;;;;;;5126648;27;20050;-76
2023/08/16 01:36:19;;;;;;;0.30;0.30;;;13.00;99.90;;;;;;5124785;27;20042;-76
2023/08/16 01:38:45;;;;;;;0.30;0.30;;;12.80;99.90;;;;;;5123163;27;20389;-76
2023/08/16 01:41:20;;;;;;;0.30;0.30;;;13.00;99.90;;;;;;5110048;27;20098;-75
2023/08/16 01:43:47;;;;;;;0.30;0.30;;;12.80;99.90;;;;;;5129581;27;20454;-75
2023/08/16 01:46:14;;;;;;;0.30;0.30;;;12.90;99.90;;;;;;5125069;27;20466;-76
2023/08/16 01:48:40;;;;;;;0.30;0.30;;;12.80;99.90;;;;;;5126031;27;20042;-76
2023/08/16 01:51:07;;;;;;;0.30;0.30;;;12.80;99.90;;;;;;5127229;27;20055;-76
2023/08/16 01:53:34;;;;;;;0.32;0.32;;;13.00;99.90;;;;;;5122463;27;20043;-76
2023/08/16 01:56:00;;;;;;;0.30;0.30;;;12.70;99.90;;;;;;5108767;27;20058;-76
2023/08/16 01:58:26;;;;;;;0.30;0.30;;;12.80;99.90;;;;;;5132647;27;20043;-76
2023/08/16 02:00:51;;;;;;;0.30;0.30;;;12.90;99.90;;;;;;5127668;27;20506;-75
2023/08/16 02:03:17;;;;;;;0.30;0.30;;;12.70;99.90;;;;;;5125009;27;20095;-75
2023/08/16 02:05:43;;;;;;;0.40;0.40;;;12.70;99.90;;;;;;5127407;27;20070;-75
2023/08/16 02:08:10;;;;;;;0.30;0.30;;;12.70;99.90;;;;;;5125810;27;20594;-75
2023/08/16 02:10:36;;;;;;;0.32;0.32;;;12.60;99.90;;;;;;5127847;27;20520;-75
2023/08/16 02:13:02;;;;;;;0.30;0.30;;;12.60;99.90;;;;;;5127042;27;20058;-77
2023/08/16 02:15:28;;;;;;;0.28;0.28;;;12.50;99.90;;;;;;5128623;27;20181;-75
2023/08/16 02:17:54;;;;;;;;;;;12.60;99.90;;;;;;5126484;27;20129;-75
2023/08/16 02:20:19;;;;;;;0.20;0.20;;;12.50;99.90;;;;;;5132141;27;20259;-75
2023/08/16 02:22:45;;;;;;;0.30;0.30;;;12.50;99.90;;;;;;5139379;27;20138;-75
2023/08/16 02:25:11;;;;;;;0.40;0.40;;;12.50;99.90;;;;;;5108588;27;20047;-76
2023/08/16 02:27:37;;;;;;;;;;;12.50;99.90;;;;;;5120260;27;20050;-75
2023/08/16 02:30:04;;;;;;;0.40;0.40;;;12.50;99.90;;;;;;5140123;27;19939;-77
2023/08/16 02:32:29;;;;;;;0.20;0.20;;;12.50;99.90;;;;;;5121835;27;20122;-77
2023/08/16 02:34:55;;;;;;;0.40;0.40;;;12.50;99.90;;;;;;5124757;27;20135;-75
2023/08/16 02:37:23;;;;;;;0.30;0.30;;;12.50;99.90;;;;;;5124564;27;20075;-75
2023/08/16 02:39:48;;;;;;;0.75;0.50;;;12.40;99.90;;;;;;5116866;27;20043;-77
2023/08/16 02:42:14;;;;;;;0.40;0.40;;;12.40;99.90;;;;;;5100027;27;20039;-76
2023/08/16 02:44:40;;;;;;;0.40;0.40;;;12.40;99.90;;;;;;5108856;27;20071;-76
2023/08/16 02:47:05;;;;;;;;;;;12.40;99.90;;;;;;5117175;27;20082;-75
2023/08/16 02:49:31;;;;;;;0.40;0.40;;;12.40;99.90;;;;;;5116403;27;19924;-76
2023/08/16 02:51:56;;;;;;;0.20;0.20;;;12.40;99.90;;;;;;5122539;27;20521;-77
2023/08/16 02:54:22;;;;;;;0.30;0.30;;;12.40;99.90;;;;;;5118025;27;20369;-76
2023/08/16 02:56:47;;;;;;;0.35;0.35;;;12.40;99.90;;;;;;5125457;27;20409;-76
2023/08/16 02:59:14;;;;;;;0.30;0.30;;;12.40;99.90;;;;;;5108131;27;20474;-76
2023/08/16 03:01:40;;;;;;;0.30;0.30;;;12.40;99.90;;;;;;5121200;27;20525;-76
2023/08/16 03:04:06;;;;;;;0.40;0.40;;;12.40;99.90;;;;;;5119116;27;20043;-75
2023/08/16 03:06:32;;;;;;;;;;;12.40;99.90;;;;;;5127126;27;20092;-76
2023/08/16 03:08:57;;;;;;;0.30;0.30;;;12.40;99.90;;;;;;5101936;27;20369;-76
2023/08/16 03:11:23;;;;;;;0.38;0.38;;;12.40;99.90;;;;;;5125812;27;20485;-76
2023/08/16 03:13:49;;;;;;;0.32;0.32;;;12.40;99.90;;;;;;5121687;27;20161;-76
2023/08/16 03:16:14;;;;;;;0.30;0.30;;;12.40;99.90;;;;;;5120397;27;20047;-76
2023/08/16 03:18:40;;;;;;;0.65;0.65;;;12.40;99.90;;;;;;5124158;27;20043;-76
2023/08/16 03:21:05;;;;;;;0.38;0.38;;;12.40;99.90;;;;;;5124098;27;20048;-76
2023/08/16 03:23:31;;;;;;;0.40;0.40;;;12.40;99.90;;;;;;5123671;27;20495;-76
2023/08/16 03:25:57;;;;;;;0.30;0.30;;;12.30;99.90;;;;;;5117883;27;20576;-76
2023/08/16 03:28:22;;;;;;;0.40;0.40;;;12.30;99.90;;;;;;5119023;27;20413;-75
2023/08/16 03:30:48;;;;;;;0.30;0.30;;;12.20;99.90;;;;;;5121520;27;20428;-76
2023/08/16 03:33:14;;;;;;;;;;;12.20;99.90;;;;;;5114117;27;20473;-76
2023/08/16 03:35:39;;;;;;;0.40;0.40;;;12.20;99.90;;;;;;5117367;27;19930;-76
2023/08/16 03:38:05;;;;;;;0.32;0.32;;;12.20;99.90;;;;;;5116046;27;20046;-75
2023/08/16 03:40:31;;;;;;;0.40;0.40;;;12.10;99.90;;;;;;5126746;27;20084;-76
2023/08/16 03:42:56;;;;;;;0.40;0.40;;;12.10;99.90;;;;;;5127079;27;20104;-75
2023/08/16 03:45:24;;;;;;;0.32;0.32;;;12.10;99.90;;;;;;5136443;27;20039;-75
2023/08/16 03:47:52;;;;;;;0.40;0.40;;;12.10;99.90;;;;;;5129220;27;22018;-76
2023/08/16 03:50:18;;;;;;;0.30;0.30;;;12.10;99.90;;;;;;5133113;27;20034;-76
2023/08/16 03:52:43;;;;;;;0.30;0.30;;;12.10;99.90;;;;;;5130079;27;20043;-77
2023/08/16 03:55:09;;;;;;;0.40;0.40;;;12.10;99.90;;;;;;5138086;27;20039;-76
2023/08/16 03:57:35;;;;;;;0.30;0.30;;;12.00;99.90;;;;;;5140825;27;20053;-76
2023/08/16 04:00:03;;;;;;;0.30;0.30;;;12.00;99.90;;;;;;5128932;27;20052;-76
2023/08/16 04:02:29;;;;;;;0.40;0.40;;;12.10;99.90;;;;;;5120040;27;20529;-76
2023/08/16 04:05:06;;;;;;;0.40;0.40;;;12.10;99.90;;;;;;5124351;27;20057;-76
2023/08/16 04:07:32;;;;;;;0.45;0.45;;;12.00;99.90;;;;;;5123040;27;20046;-76
2023/08/16 04:09:57;;;;;;;0.40;0.40;;;12.00;99.90;;;;;;5121064;27;20379;-77
2023/08/16 04:12:23;;;;;;;0.30;0.30;;;11.90;99.90;;;;;;5124748;27;20400;-76
2023/08/16 04:14:48;;;;;;;0.40;0.40;;;11.90;99.90;;;;;;5121894;27;20042;-76
2023/08/16 04:17:14;;;;;;;0.30;0.30;;;11.90;99.90;;;;;;5131075;27;20479;-76
2023/08/16 04:19:40;;;;;;;0.40;0.40;;;11.90;99.90;;;;;;5115332;27;20438;-76
2023/08/16 04:22:05;;;;;;;0.45;0.45;;;11.90;99.90;;;;;;5121447;27;20046;-76
2023/08/16 04:24:31;;;;;;;0.30;0.30;;;11.90;99.90;;;;;;5103800;27;20043;-77
2023/08/16 04:26:57;;;;;;;0.30;0.30;;;11.90;99.90;;;;;;5114937;27;20081;-76
2023/08/16 04:29:24;;;;;;;0.30;0.30;;;11.80;99.90;;;;;;5126098;27;20766;-77
2023/08/16 04:31:50;;;;;;;0.40;0.40;;;11.90;99.90;;;;;;5113760;27;20439;-76
2023/08/16 04:34:15;;;;;;;0.30;0.30;;;11.90;99.90;;;;;;5122544;27;20078;-77
2023/08/16 04:36:41;;;;;;;0.40;0.40;;;12.00;99.90;;;;;;5122498;27;20049;-76
2023/08/16 04:39:08;;;;;;;0.40;0.40;;;12.00;99.90;;;;;;5108958;27;20486;-76
2023/08/16 04:41:33;;;;;;;0.30;0.30;;;12.00;99.90;;;;;;5112706;27;20482;-76
2023/08/16 04:43:59;;;;;;;0.45;0.45;;;12.10;99.90;;;;;;5138235;27;20083;-76
2023/08/16 04:46:25;;;;;;;0.40;0.40;;;12.10;99.90;;;;;;5126328;27;20079;-77
2023/08/16 04:48:50;;;;;;;0.43;0.43;;;12.10;99.90;;;;;;5129951;27;20773;-76
2023/08/16 04:51:17;;;;;;;0.40;0.40;;;12.20;99.90;;;;;;5135299;27;20043;-77
2023/08/16 04:53:44;;;;;;;0.40;0.40;;;12.20;99.90;;;;;;5133043;27;20433;-76
2023/08/16 04:56:09;;;;;;;0.40;0.40;;;12.30;99.90;;;;;;5133764;27;20150;-76
2023/08/16 04:58:35;;;;;;;0.40;0.40;;;12.30;99.90;;;;;;5118326;27;20130;-76
2023/08/16 05:01:01;;;;;;;0.50;0.50;;;12.30;99.90;;;;;;5137597;27;20046;-75
2023/08/16 05:03:26;;;;;;;0.35;0.35;;;12.40;99.90;;;;;;5121545;27;20047;-76
2023/08/16 05:05:59;;;;;;;0.40;0.40;;;12.50;99.90;;;;;;5118513;27;20043;-76
2023/08/16 05:08:25;;;;;;;0.30;0.30;;;12.50;99.90;;;;;;5132996;27;21033;-75
2023/08/16 05:10:50;;;;;;;0.30;0.30;;;12.60;99.90;;;;;;5088328;28;20046;-76
2023/08/16 05:13:17;;;;;;;0.30;0.30;;;12.60;99.90;;;;;;5085691;28;20657;-76
2023/08/16 05:15:43;;;;;;;0.40;0.40;;;12.70;99.90;;;;;;5081341;28;20078;-76
2023/08/16 05:18:09;;;;;;;0.30;0.30;;;12.70;99.90;;;;;;5082899;28;20055;-76
2023/08/16 05:20:35;;;;;;;0.30;0.30;;;12.80;99.90;;;;;;5083579;28;20078;-76
2023/08/16 05:23:01;;;;;;;0.30;0.30;;;12.90;99.90;;;;;;5095277;28;20486;-76
2023/08/16 05:25:27;;;;;;;0.30;0.30;;;13.00;99.90;;;;;;5094887;28;20044;-75
2023/08/16 05:27:52;;;;;;;0.40;0.40;;;13.00;99.90;;;;;;5078632;28;20620;-76
2023/08/16 05:30:18;;;;;;;0.40;0.40;;;13.10;99.90;;;;;;5084578;28;20414;-75
2023/08/16 05:32:44;;;;;;;0.28;0.28;;;13.20;99.90;;;;;;5079891;28;20043;-75
2023/08/16 05:35:09;;;;;;;0.38;0.38;;;13.20;99.90;;;;;;5085107;28;20081;-75
2023/08/16 05:37:35;;;;;;;0.20;0.20;;;13.30;99.90;;;;;;5076421;28;20045;-76
2023/08/16 05:40:01;;;;;;;0.30;0.30;;;13.40;99.90;;;;;;5074994;28;20075;-77
2023/08/16 05:42:28;;;;;;;;;;;13.50;99.90;;;;;;5082472;28;20056;-76
2023/08/16 05:44:54;;;;;;;0.30;0.30;;;13.50;99.90;;;;;;5079009;28;20559;-76
2023/08/16 05:47:19;;;;;;;;;;;13.60;99.90;;;;;;5089379;28;20090;-76
2023/08/16 05:49:45;;;;;;;0.32;0.32;;;13.70;99.90;;;;;;5088348;28;20255;-76
2023/08/16 05:52:11;;;;;;;0.40;0.40;;;13.80;99.90;;;;;;5089018;28;20204;-76
2023/08/16 05:54:36;;;;;;;0.30;0.30;;;14.00;99.90;;;;;;5088406;28;20127;-76
2023/08/16 05:57:02;;;;;;;;;;;14.20;99.90;;;;;;5089627;28;20089;-75
2023/08/16 05:59:28;;;;;;;0.30;0.30;;;14.40;99.90;;;;;;5088726;28;20409;-76
2023/08/16 06:01:54;;;;;;;0.30;0.30;;;14.50;99.90;;;;;;5087277;28;20079;-76
2023/08/16 06:04:19;;;;;;;;;;;14.60;99.90;;;;;;5087766;28;20052;-76
2023/08/16 06:06:45;;;;;;;0.30;0.30;;;14.80;99.90;;;;;;5088054;28;20017;-75
2023/08/16 06:09:11;;;;;;;0.20;0.20;;;14.90;99.90;;;;;;5097771;28;20055;-76
2023/08/16 06:11:36;;;;;;;;;;;15.10;99.90;;;;;;5146068;27;20502;-76
2023/08/16 06:14:03;;;;;;;0.30;0.30;;;15.70;99.90;;;;;;5134414;27;19920;-76
2023/08/16 06:16:28;;;;;;;0.20;0.20;;;15.30;99.90;;;;;;5132539;27;20093;-75
2023/08/16 06:18:54;;;;;;;0.30;0.30;;;15.40;99.90;;;;;;5132850;27;20078;-76
2023/08/16 06:21:20;;;;;;;0.30;0.30;;;15.50;99.90;;;;;;5133347;27;20137;-75
2023/08/16 06:23:47;;;;;;;;;;;15.60;99.90;;;;;;5132917;27;20058;-76
2023/08/16 06:26:13;;;;;;;;;;;15.60;99.90;;;;;;5133509;27;19923;-76
2023/08/16 06:28:39;;;;;;;0.20;0.20;;;15.70;99.90;;;;;;5132850;27;19925;-75
2023/08/16 06:31:04;;;;;;;;;;;15.70;99.90;;;;;;5133309;27;20531;-75
2023/08/16 06:33:30;;;;;;;0.40;0.40;;;15.80;99.90;;;;;;5132972;27;20022;-76
2023/08/16 06:35:56;;;;;;;0.20;0.20;;;15.80;99.90;;;;;;5132361;27;20047;-75
2023/08/16 06:38:22;;;;;;;;;;;15.90;99.90;;;;;;5133244;27;20035;-75
2023/08/16 06:40:49;;;;;;;0.30;0.30;;;16.00;99.90;;;;;;5132307;27;19979;-76
2023/08/16 06:43:15;;;;;;;0.25;0.25;;;16.00;99.90;;;;;;5126375;27;20161;-76
2023/08/16 06:45:41;;;;;;;;;;;16.20;99.90;;;;;;5122818;27;20070;-76
2023/08/16 06:48:07;;;;;;;0.30;0.30;;;16.30;99.90;;;;;;5132554;27;19926;-76
2023/08/16 06:50:33;;;;;;;0.30;0.30;;;16.50;99.90;;;;;;5132328;27;20058;-75
2023/08/16 06:52:58;;;;;;;;;;;16.50;99.90;;;;;;5132424;27;20047;-76
2023/08/16 06:55:24;;;;;;;0.20;0.20;;;16.60;99.90;;;;;;5132283;27;20334;-76
2023/08/16 06:57:50;;;;;;;;;;;16.80;99.90;;;;;;5132382;27;20031;-76
2023/08/16 07:00:17;;;;;;;0.20;0.20;;;16.90;99.90;;;;;;5132256;27;20033;-76
2023/08/16 07:02:43;;;;;;;0.28;0.28;;;17.00;99.90;;;;;;5113864;27;20055;-76
2023/08/16 07:05:12;;;;;;;;;;;17.20;99.90;;;;;;5132700;27;20043;-76
2023/08/16 07:07:37;;;;;;;0.57;0.57;;;17.30;99.90;;;;;;5131750;27;20377;-75
2023/08/16 07:10:04;;;;;;;;;;;17.40;99.90;;;;;;5131832;27;20061;-76
2023/08/16 07:12:30;;;;;;;0.20;0.20;;;17.50;99.90;;;;;;5131740;27;19966;-76
2023/08/16 07:14:55;;;;;;;;;;;17.60;99.90;;;;;;5131706;27;20155;-77
2023/08/16 07:17:21;;;;;;;0.20;0.20;;;17.60;99.90;;;;;;5131599;27;19924;-76
2023/08/16 07:19:50;;;;;;;;;;;17.70;99.90;;;;;;5131439;27;20047;-76
2023/08/16 07:22:16;;;;;;;0.20;0.20;;;17.70;99.90;;;;;;5113785;27;19923;-76
2023/08/16 07:24:42;;;;;;;;;;;17.80;99.90;;;;;;5132261;27;20043;-76
2023/08/16 07:27:07;;;;;;;0.30;0.30;;;17.80;99.90;;;;;;5131634;27;20365;-76
2023/08/16 07:29:33;;;;;;;;;;;17.70;99.90;;;;;;5132082;27;20047;-76
2023/08/16 07:31:58;;;;;;;0.30;0.30;;;17.60;99.90;;;;;;5131167;27;19919;-76
2023/08/16 07:34:24;;;;;;;;;;;17.70;99.90;;;;;;5132032;27;20043;-75
2023/08/16 07:36:50;;;;;;;0.28;0.28;;;17.80;99.90;;;;;;5130832;27;20010;-77
2023/08/16 07:39:15;;;;;;;;;;;17.90;99.90;;;;;;5131942;27;20085;-75
2023/08/16 07:41:41;;;;;;;0.20;0.20;;;18.10;99.90;;;;;;5131492;27;20406;-77
2023/08/16 07:44:07;;;;;;;;;;;18.20;99.90;;;;;;5117816;27;20084;-75
2023/08/16 07:46:32;;;;;;;0.20;0.20;;;18.20;99.90;;;;;;5128717;27;19923;-75
2023/08/16 07:48:58;;;;;;;;;;;18.20;99.90;;;;;;5131235;27;20503;-76
2023/08/16 07:51:24;;;;;;;0.22;0.22;;;18.30;99.90;;;;;;5131273;27;19992;-76
2023/08/16 07:53:49;;;;;;;;;;;18.40;99.90;;;;;;5131205;27;20054;-78
2023/08/16 07:56:15;;;;;;;0.30;0.30;;;18.50;99.90;;;;;;5112755;27;19934;-77
2023/08/16 07:58:41;;;;;;;;;;;18.50;99.90;;;;;;5131414;27;20100;-77
2023/08/16 08:01:07;;;;;;;0.40;0.40;;;18.50;99.90;;;;;;5130665;27;20396;-77
2023/08/16 08:03:33;;;;;;;0.43;0.43;;;18.60;99.90;;;;;;5131037;27;20050;-76
2023/08/16 08:06:02;;;;;;;;;;;18.70;99.90;;;;;;5130903;27;20125;-76
2023/08/16 08:08:27;;;;;;;0.20;0.20;;;18.80;99.90;;;;;;5130795;27;19923;-77
2023/08/16 08:10:53;;;;;;;;;;;18.90;99.90;;;;;;5130874;27;20447;-76
2023/08/16 08:13:19;;;;;;;0.20;0.20;;;19.00;99.90;;;;;;5112403;27;20652;-77
2023/08/16 08:15:45;;;;;;;;;;;19.20;99.90;;;;;;5131158;27;20412;-76
2023/08/16 08:18:11;;;;;;;0.20;0.20;;;19.30;99.90;;;;;;5111813;27;20001;-76
2023/08/16 08:20:37;;;;;;;;;;;19.30;99.90;;;;;;5131232;27;20080;-77
2023/08/16 08:23:03;;;;;;;0.20;0.20;;;19.40;99.90;;;;;;5130139;27;19926;-76
2023/08/16 08:25:29;;;;;;;0.45;0.45;;;19.50;99.90;;;;;;5130795;27;20496;-75
2023/08/16 08:27:56;;;;;;;0.45;0.45;;;19.50;99.90;;;;;;5129581;27;20505;-76
2023/08/16 08:30:21;;;;;;;0.20;0.20;;;19.50;99.90;;;;;;5130538;27;20083;-76
2023/08/16 08:32:48;;;;;;;0.20;0.20;;;19.50;99.90;;;;;;5130433;27;20078;-77
2023/08/16 08:35:13;;;;;;;0.25;0.25;;;19.60;99.90;;;;;;5130212;27;20047;-76
2023/08/16 08:37:39;;;;;;;0.20;0.20;;;19.70;99.90;;;;;;5129628;27;20039;-76
2023/08/16 08:40:05;;;;;;;;;;;19.80;99.90;;;;;;5130395;27;20055;-76
2023/08/16 08:42:32;;;;;;;0.30;0.30;;;20.00;99.90;;;;;;5130099;27;19929;-76
2023/08/16 08:44:59;;;;;;;0.20;0.20;;;20.10;99.90;;;;;;5113889;27;20426;-76
2023/08/16 08:47:26;;;;;;;0.30;0.30;;;20.20;99.90;;;;;;5130461;27;20129;-75
2023/08/16 08:49:53;;;;;;;0.30;0.30;;;20.20;99.90;;;;;;5129958;27;20051;-76
2023/08/16 08:52:21;;;;;;;0.30;0.30;;;20.30;99.90;;;;;;5130265;27;20051;-76
2023/08/16 08:54:47;;;;;;;0.20;0.20;;;20.30;99.90;;;;;;5130172;27;20046;-76
2023/08/16 08:57:14;;;;;;;0.28;0.28;;;20.30;99.90;;;;;;5129517;27;20046;-76
2023/08/16 08:59:49;;;;;;;0.28;0.28;;;20.50;99.90;;;;;;5130124;27;20031;-75
2023/08/16 09:02:19;;;;;;;0.20;0.20;;;20.90;99.90;;;;;;5129791;27;20043;-76
2023/08/16 09:04:46;;;;;;;0.20;0.20;;;20.90;99.90;;;;;;5130292;27;20122;-76
2023/08/16 09:07:12;;;;;;;0.10;0.10;;;21.00;99.90;;;;;;5111458;27;20721;-77
2023/08/16 09:09:39;;;;;;;0.30;0.30;;;21.10;99.90;;;;;;5129860;27;20055;-77
2023/08/16 09:12:05;;;;;;;0.25;0.25;;;21.10;99.90;;;;;;5129688;28;20054;-76
2023/08/16 09:14:32;;;;;;;0.20;0.20;;;21.30;99.90;;;;;;5129795;28;20047;-76
2023/08/16 09:16:57;;;;;;;0.10;0.10;;;21.30;99.90;;;;;;5129544;28;20058;-76
2023/08/16 09:19:23;;;;;;;0.20;0.20;;;21.20;99.90;;;;;;5129934;28;20129;-76
2023/08/16 09:21:51;;;;;;;0.20;0.20;;;21.20;99.90;;;;;;5111626;28;20050;-77
2023/08/16 09:24:23;;;;;;;0.20;0.20;;;21.30;99.90;;;;;;5129505;28;20112;-77
2023/08/16 09:26:49;;;;;;;0.55;0.55;;;21.30;99.90;;;;;;5130069;28;20051;-76
2023/08/16 09:29:17;;;;;;;0.15;0.15;;;21.20;99.90;;;;;;5110792;28;20051;-77
2023/08/16 09:31:46;;;;;;;0.17;0.17;;;21.20;99.90;;;;;;5129781;28;20139;-75
2023/08/16 09:34:13;;;;;;;0.20;0.20;;;21.20;99.90;;;;;;5129535;28;20107;-76
2023/08/16 09:36:46;;;;;;;0.22;0.22;;;21.40;99.90;;;;;;5129511;28;20122;-76
2023/08/16 09:39:12;;;;;;;0.40;0.40;;;21.50;99.90;;;;;;5129226;28;20035;-76
2023/08/16 09:41:50;;;;;;;0.20;0.20;;;21.70;99.90;;;;;;5129904;28;20401;-77
2023/08/16 09:44:17;;;;;;;0.20;0.20;;;21.80;99.90;;;;;;5113837;28;20055;-76
2023/08/16 09:46:43;;;;;;;0.25;0.25;;;22.00;99.90;;;;;;5128712;28;20048;-76
2023/08/16 09:49:10;;;;;;;0.20;0.20;;;22.10;99.90;;;;;;5129687;27;20058;-76
2023/08/16 09:51:37;;;;;;;0.20;0.20;;;22.10;99.90;;;;;;5133360;27;20051;-77
2023/08/16 09:54:11;;;;;;;0.20;0.20;;;22.30;99.90;;;;;;5133147;27;20046;-77
2023/08/16 09:56:38;;;;;;;0.20;0.20;;;22.40;99.90;;;;;;5133731;27;20050;-76
2023/08/16 09:59:07;;;;;;;0.20;0.20;;;22.40;99.90;;;;;;5133131;27;20039;-77
2023/08/16 10:01:33;;;;;;;0.17;0.17;;;22.50;99.90;;;;;;5133486;27;20578;-77
2023/08/16 10:04:01;;;;;;;0.43;0.43;;;22.50;99.90;;;;;;5133307;27;20409;-78
2023/08/16 10:06:30;;;;;;;0.13;0.13;;;22.50;99.90;;;;;;5133928;27;20122;-76
2023/08/16 10:08:56;;;;;;;0.30;0.30;;;22.50;99.90;;;;;;5133336;27;20043;-77
2023/08/16 10:11:23;;;;;;;0.30;0.30;;;22.70;99.90;;;;;;5132802;27;20566;-76
2023/08/16 10:13:50;;;;;;;0.20;0.20;;;22.80;99.90;;;;;;5133662;27;20055;-77
2023/08/16 10:16:18;;;;;;;0.20;0.20;;;22.90;99.90;;;;;;5132793;27;20066;-76
2023/08/16 10:18:46;;;;;;;0.43;0.43;;;23.20;99.90;;;;;;5115134;27;20065;-76
2023/08/16 10:21:16;;;;;;;0.22;0.22;;;23.20;99.90;;;;;;5132683;27;20039;-76
2023/08/16 10:23:42;;;;;;;0.10;0.10;;;23.20;99.90;;;;;;5133271;27;20054;-77
2023/08/16 10:26:14;;;;;;;0.20;0.20;;;23.00;99.90;;;;;;5132615;27;20047;-77
2023/08/16 10:28:44;;;;;;;0.10;0.10;;;23.00;99.90;;;;;;5132972;27;20131;-76
2023/08/16 10:31:11;;;;;;;0.20;0.20;;;23.20;99.90;;;;;;5132316;27;20049;-77
2023/08/16 10:33:43;;;;;;;0.20;0.20;;;23.30;99.90;;;;;;5132957;27;20130;-77
2023/08/16 10:36:11;;;;;;;0.20;0.20;;;23.50;99.90;;;;;;5132439;27;20043;-77
2023/08/16 10:38:38;;;;;;;0.28;0.28;;;23.70;99.90;;;;;;5132406;27;20107;-77
2023/08/16 10:41:13;;;;;;;0.20;0.20;;;23.90;99.90;;;;;;5132214;27;20049;-78
2023/08/16 10:43:45;;;;;;;0.10;0.10;;;23.90;99.90;;;;;;5132708;27;20149;-77
2023/08/16 10:46:12;;;;;;;0.30;0.30;;;24.00;99.90;;;;;;5132015;27;20051;-77
2023/08/16 10:48:38;;;;;;;0.20;0.20;;;24.20;99.90;;;;;;5132703;27;20054;-76
2023/08/16 10:51:06;;;;;;;0.20;0.20;;;24.30;99.90;;;;;;5132051;27;20047;-76
2023/08/16 10:53:37;;;;;;;0.10;0.10;;;24.30;99.90;;;;;;5132500;27;20123;-77
2023/08/16 10:56:09;;;;;;;0.20;0.20;;;24.30;99.90;;;;;;5132111;27;20511;-77
2023/08/16 10:58:50;;;;;;;1.30;1.23;;;23.90;99.90;;;;;;5132358;27;20035;-76
2023/08/16 11:01:16;;;;;;;0.20;0.20;;;23.60;99.90;;;;;;5112879;27;20083;-75
2023/08/16 11:03:47;;;;;;;0.20;0.20;;;23.50;99.90;;;;;;5132327;27;20114;-76
2023/08/16 11:06:18;;;;;;;0.20;0.20;;;23.70;99.90;;;;;;5131711;27;20828;-76
2023/08/16 11:08:45;;;;;;;0.20;0.20;;;23.60;99.90;;;;;;5132005;27;20043;-77
2023/08/16 11:11:12;;;;;;;0.20;0.20;;;23.70;99.90;;;;;;5131587;27;20565;-76
2023/08/16 11:13:42;;;;;;;0.20;0.20;;;23.70;99.90;;;;;;5131844;27;20054;-75
2023/08/16 11:16:11;;;;;;;0.30;0.30;;;23.70;99.90;;;;;;5131408;27;20046;-77
2023/08/16 11:18:41;;;;;;;0.17;0.17;;;23.60;99.90;;;;;;5131986;27;20779;-77
2023/08/16 11:21:08;;;;;;;0.30;0.30;;;23.30;99.90;;;;;;5131534;27;20047;-76
2023/08/16 11:23:42;;;;;;;0.50;0.50;;;23.10;99.90;;;;;;5113350;27;20497;-76
2023/08/16 11:26:09;;;;;;;0.20;0.20;;;22.90;99.90;;;;;;5131623;27;20473;-76
2023/08/16 11:28:37;;;;;;;0.20;0.20;;;22.80;99.90;;;;;;5131298;27;20386;-76
2023/08/16 11:31:07;;;;;;;0.20;0.20;;;23.00;99.90;;;;;;5131843;27;20126;-76
2023/08/16 11:33:39;;;;;;;0.20;0.20;;;23.20;99.90;;;;;;5131647;27;20055;-76
2023/08/16 11:36:07;;;;;;;0.20;0.20;;;23.20;99.90;;;;;;5131624;27;20054;-76
2023/08/16 11:38:34;;;;;;;0.20;0.20;;;23.00;99.90;;;;;;5131229;27;20035;-75
2023/08/16 11:41:01;;;;;;;0.20;0.20;;;22.80;99.90;;;;;;5131537;27;20051;-76
2023/08/16 11:43:27;;;;;;;0.30;0.30;;;22.60;99.90;;;;;;5104742;28;20059;-76
2023/08/16 11:45:53;;;;;;;0.68;0.68;;;22.50;99.90;;;;;;5123395;27;20051;-76
2023/08/16 11:48:19;;;;;;;0.20;0.20;;;22.50;99.90;;;;;;5130960;27;20045;-76
2023/08/16 11:50:45;;;;;;;0.20;0.20;;;22.50;99.90;;;;;;5131698;27;20043;-76
2023/08/16 11:53:18;;;;;;;0.25;0.25;;;22.40;99.90;;;;;;5130923;27;20054;-77
2023/08/16 11:55:56;;;;;;;0.20;0.20;;;22.30;99.90;;;;;;5131323;27;20042;-77
2023/08/16 11:58:22;;;;;;;0.50;0.50;;;22.20;99.90;;;;;;5122529;27;20055;-77
2023/08/16 12:00:48;;;;;;;0.20;0.20;;;22.30;99.90;;;;;;5131120;27;20062;-77
2023/08/16 12:03:17;;;;;;;0.30;0.30;;;22.70;99.90;;;;;;5130633;27;20050;-77
2023/08/16 12:05:46;;;;;;;0.60;0.60;;;23.10;99.90;;;;;;5131190;27;20043;-75
2023/08/16 12:08:12;;;;;;;0.20;0.20;;;23.60;99.90;;;;;;5130425;27;20092;-76
2023/08/16 12:10:39;;;;;;;0.13;0.13;;;24.00;99.90;;;;;;5130412;27;20050;-76
2023/08/16 12:13:12;;;;;;;0.20;0.20;;;24.20;99.90;;;;;;5130167;27;20086;-76
2023/08/16 12:15:39;;;;;;;0.40;0.40;;;24.30;99.90;;;;;;5112585;27;20053;-77
2023/08/16 12:18:05;;;;;;;2.38;0.32;;;24.50;99.90;;;;;;5130829;27;20444;-76
2023/08/16 12:20:31;;;;;;;0.22;0.22;;;24.70;99.90;;;;;;5130322;27;20046;-76
2023/08/16 12:22:59;;;;;;;0.10;0.10;;;24.80;99.90;;;;;;5130731;27;20043;-76
2023/08/16 12:25:25;;;;;;;0.13;0.13;;;24.70;99.90;;;;;;5130259;27;20047;-76
2023/08/16 12:27:51;;;;;;;0.30;0.30;;;24.50;99.90;;;;;;5130696;27;20054;-76
2023/08/16 12:30:17;;;;;;;0.28;0.28;;;24.40;99.90;;;;;;5112307;27;20084;-76
2023/08/16 12:32:42;;;;;;;0.10;0.10;;;24.50;99.90;;;;;;5131078;27;20057;-76
2023/08/16 12:35:08;;;;;;;0.10;0.10;;;24.90;99.90;;;;;;5130784;27;20047;-77
2023/08/16 12:37:35;;;;;;;1.17;0.60;;;25.00;99.90;;;;;;5111827;27;20517;-77
2023/08/16 12:40:01;;;;;;;0.30;0.30;;;24.70;99.90;;;;;;5130943;27;20043;-77
2023/08/16 12:42:26;;;;;;;0.20;0.20;;;24.40;99.90;;;;;;5094933;27;20374;-76
2023/08/16 12:44:52;;;;;;;0.30;0.30;;;24.20;99.90;;;;;;5114319;27;20038;-77
2023/08/16 12:47:18;;;;;;;0.20;0.20;;;24.10;99.90;;;;;;5130324;27;20134;-76
2023/08/16 12:49:44;;;;;;;0.10;0.10;;;24.20;99.90;;;;;;5130460;27;20058;-76
2023/08/16 12:52:09;;;;;;;0.20;0.20;;;24.50;99.90;;;;;;5112069;27;20047;-75
2023/08/16 12:54:35;;;;;;;0.20;0.20;;;24.70;99.90;;;;;;5129734;27;20051;-76
2023/08/16 12:57:01;;;;;;;0.10;0.10;;;24.70;99.90;;;;;;5111625;27;20050;-76